This is the latest recevied weather packets stored in our database for station/object IN3XSV-13. If no packets are shown the sender has not sent any weather packets the latest 10 day(s).
| Time | Temp. | Humidity | Pressure | Rain* | Wind** | Luminosity | Snow |
|---|---|---|---|---|---|---|---|
| 1787475776 | 26.11° C | 58% | 1013.8 hPa | 0 mm | - | - | - |
| 1787475476 | 26.11° C | 59% | 1014 hPa | 0 mm | - | - | - |
| 1787475176 | 25.56° C | 61% | 1014.1 hPa | 0 mm | - | - | - |
| 1787474876 | 25.56° C | 60% | 1014.2 hPa | 0 mm | - | - | - |
| 1787474576 | 25° C | 61% | 1014.1 hPa | 0 mm | - | - | - |
| 1787474276 | 25.56° C | 60% | 1014.1 hPa | 0 mm | - | - | - |
| 1787473976 | 24.44° C | 61% | 1014 hPa | 0 mm | - | - | - |
| 1787473676 | 25° C | 61% | 1013.9 hPa | 0 mm | - | - | - |
| 1787473376 | 25° C | 61% | 1013.9 hPa | 0 mm | - | - | - |
| 1787473076 | 25.56° C | 59% | 1013.9 hPa | 0 mm | - | - | - |
| 1787472776 | 25.56° C | 59% | 1013.7 hPa | 0 mm | - | - | - |
| 1787472476 | 26.67° C | 59% | 1013.9 hPa | 0 mm | - | - | - |
| 1787472176 | 27.22° C | 57% | 1013.7 hPa | 0 mm | - | - | - |
| 1787471876 | 27.78° C | 56% | 1013.7 hPa | 0 mm | - | - | - |
| 1787471576 | 27.78° C | 57% | 1013.7 hPa | 0 mm | - | - | - |
| 1787471276 | 27.78° C | 58% | 1013.8 hPa | 0 mm | - | - | - |
| 1787470976 | 27.78° C | 60% | 1013.8 hPa | 0 mm | - | - | - |
| 1787470676 | 26.67° C | 60% | 1013.8 hPa | 0 mm | - | - | - |
| 1787470376 | 27.22° C | 59% | 1013.9 hPa | 0 mm | - | - | - |
| 1787470076 | 26.67° C | 63% | 1013.8 hPa | 0 mm | - | - | - |
| 1787469776 | 25.56° C | 64% | 1013.8 hPa | 0 mm | - | - | - |
| 1787469476 | 25° C | 64% | 1013.8 hPa | 0 mm | - | - | - |
| 1787469176 | 26.67° C | 62% | 1013.9 hPa | 0 mm | - | - | - |
| 1787468876 | 28.33° C | 61% | 1014.1 hPa | 0 mm | - | - | - |
| 1787468576 | 27.78° C | 64% | 1014.2 hPa | 0 mm | - | - | - |
* Rain latest hour (hover to see other rain measurements)
** Current wind speed in m/s (hover to see current wind gust speed)